Time;durP1;ratioP1;P1;durP2;ratioP2;P2;SDS_P1;SDS_P2;PMS_P1;PMS_P2;Temp;Humidity;BMP_temperature;BMP_pressure;BME280_temperature;BME280_humidity;BME280_pressure;Samples;Min_cycle;Max_cycle;Signal;HPM_P1;HPM_P2
2022/01/12 00:01:54;;;;;;;376.10;277.48;;;;;;;25.30;42.20;103284.28;5125454;27;20081;-44
2022/01/12 00:04:21;;;;;;;374.08;278.80;;;;;;;25.28;42.30;103289.47;5124698;27;20043;-44
2022/01/12 00:06:49;;;;;;;391.15;286.30;;;;;;;25.28;42.31;103288.56;5124911;27;20026;-44
2022/01/12 00:09:21;;;;;;;384.48;284.58;;;;;;;25.26;42.07;103279.69;5124685;27;20098;-44
2022/01/12 00:11:50;;;;;;;384.23;282.85;;;;;;;25.21;42.42;103284.75;5124894;27;20035;-44
2022/01/12 00:14:19;;;;;;;403.45;290.50;;;;;;;25.20;42.20;103284.72;5124380;27;20432;-45
2022/01/12 00:16:48;;;;;;;385.88;286.35;;;;;;;25.23;42.18;103290.97;5124538;27;20023;-44
2022/01/12 00:19:17;;;;;;;382.13;291.67;;;;;;;25.26;42.24;103290.22;5124464;27;20488;-44
2022/01/12 00:21:45;;;;;;;394.85;290.25;;;;;;;25.25;42.00;103294.59;5125117;27;20031;-44
2022/01/12 00:24:13;;;;;;;391.88;289.00;;;;;;;25.20;42.30;103295.22;5106067;27;20467;-48
2022/01/12 00:33:07;;;;;;;371.83;281.58;;;;;;;25.23;42.24;103290.09;5124554;27;20030;-45
2022/01/12 00:35:02;;;;;;;404.00;292.77;;;;;;;25.22;42.55;103296.19;5099593;27;20039;-45
2022/01/12 00:37:30;;;;;;;394.17;289.20;;;;;;;25.18;42.62;103290.78;5124630;27;20031;-44
2022/01/12 00:39:59;;;;;;;415.95;305.35;;;;;;;25.18;42.47;103284.63;5124403;27;20027;-45
2022/01/12 00:42:28;;;;;;;405.17;300.25;;;;;;;25.15;42.31;103282.75;5124320;27;20034;-44
2022/01/12 00:45:00;;;;;;;407.02;298.35;;;;;;;25.14;42.44;103287.97;5124561;27;20315;-45
2022/01/12 00:47:29;;;;;;;408.70;301.35;;;;;;;25.14;42.38;103287.97;5124886;27;20038;-44
2022/01/12 00:49:57;;;;;;;401.25;301.70;;;;;;;25.15;42.36;103295.91;5124073;27;20029;-45
2022/01/12 00:52:26;;;;;;;407.40;301.35;;;;;;;25.13;42.64;103288.78;5105712;27;20031;-44
2022/01/12 00:54:53;;;;;;;408.23;298.52;;;;;;;25.12;42.27;103290.50;5124706;27;20023;-44
2022/01/12 00:57:22;;;;;;;403.10;302.55;;;;;;;25.10;42.74;103281.66;5124551;27;20083;-45
2022/01/12 00:59:50;;;;;;;403.77;300.08;;;;;;;25.07;42.50;103280.63;5124315;27;20023;-44
2022/01/12 01:02:18;;;;;;;406.73;302.23;;;;;;;25.08;42.67;103288.56;5123954;27;20034;-45
2022/01/12 01:04:47;;;;;;;412.20;306.80;;;;;;;25.09;42.67;103292.09;5124464;28;20183;-45
2022/01/12 01:07:17;;;;;;;413.00;308.90;;;;;;;25.10;42.53;103294.78;5124388;28;20432;-44
2022/01/12 01:09:54;;;;;;;412.67;306.38;;;;;;;25.09;42.73;103297.34;5124510;28;20034;-45
2022/01/12 01:12:23;;;;;;;407.75;302.25;;;;;;;25.08;42.25;103293.81;5124474;28;20023;-45
2022/01/12 01:25:55;;;;;;;404.80;309.80;;;;;;;25.02;42.54;103280.41;5112582;28;20074;-45
2022/01/12 01:28:23;;;;;;;411.05;309.23;;;;;;;25.06;42.57;103290.25;5123769;28;20743;-44
2022/01/12 01:30:52;;;;;;;413.55;308.17;;;;;;;24.98;42.47;103292.53;5105768;28;20042;-44
2022/01/12 01:33:21;;;;;;;404.58;305.20;;;;;;;25.02;42.84;103286.56;5123671;28;20027;-44
2022/01/12 01:35:55;;;;;;;416.00;309.67;;;;;;;24.96;42.99;103286.31;5125696;27;20019;-44
2022/01/12 01:38:24;;;;;;;410.45;310.40;;;;;;;24.99;42.71;103304.78;5126993;27;20496;-45
2022/01/12 01:40:53;;;;;;;414.90;308.33;;;;;;;24.99;42.85;103302.16;5126717;27;20088;-45
2022/01/12 01:43:37;;;;;;;408.77;312.25;;;;;;;25.00;42.43;103303.97;5127175;27;20049;-44
2022/01/12 01:54:27;;;;;;;421.58;320.90;;;;;;;25.03;42.85;103319.00;5115221;27;20043;-44
2022/01/12 01:56:56;;;;;;;430.65;318.65;;;;;;;24.99;43.04;103317.03;5128011;27;20027;-44
2022/01/12 01:59:25;;;;;;;421.33;319.90;;;;;;;25.01;43.00;103315.38;5127605;27;20024;-45
2022/01/12 02:01:53;;;;;;;419.15;317.85;;;;;;;24.95;42.93;103316.00;5127752;27;20564;-45
2022/01/12 02:04:22;;;;;;;415.67;314.48;;;;;;;24.97;42.91;103334.44;5127524;27;20392;-45
2022/01/12 02:06:49;;;;;;;414.92;314.70;;;;;;;24.98;42.85;103337.16;5127429;27;20469;-45
2022/01/12 02:09:18;;;;;;;408.70;313.73;;;;;;;24.95;42.97;103337.00;5127348;27;20415;-44
2022/01/12 02:11:51;;;;;;;418.80;319.85;;;;;;;24.94;42.92;103344.81;5127118;27;20427;-46
2022/01/12 02:14:21;;;;;;;428.08;324.35;;;;;;;24.94;43.23;103350.97;5127503;27;20408;-44
2022/01/12 02:16:55;;;;;;;427.08;319.40;;;;;;;24.91;43.00;103349.91;5108788;27;20026;-47
2022/01/12 02:36:17;;;;;;;431.20;327.65;;;;;;;24.93;42.98;103349.16;5115822;27;20043;-44
2022/01/12 02:41:33;;;;;;;426.23;320.52;;;;;;;24.88;42.85;103350.66;5119905;27;20148;-46
2022/01/12 02:55:12;;;;;;;417.45;314.17;;;;;;;24.86;43.22;103344.44;5118629;27;20105;-44
2022/01/12 02:57:40;;;;;;;420.75;320.90;;;;;;;24.89;42.92;103339.34;5126763;27;20031;-44
2022/01/12 03:00:12;;;;;;;424.00;319.90;;;;;;;24.87;43.03;103349.78;5126871;27;20468;-45
2022/01/12 03:02:42;;;;;;;412.90;321.38;;;;;;;24.87;43.00;103354.13;5126299;27;20035;-44
2022/01/12 03:07:44;;;;;;;427.23;322.15;;;;;;;24.86;42.72;103331.31;5126309;27;20043;-45
2022/01/12 03:10:14;;;;;;;417.73;323.92;;;;;;;24.84;42.82;103333.88;5126560;27;20033;-44
2022/01/12 03:12:44;;;;;;;420.15;319.60;;;;;;;24.84;42.96;103328.63;5125504;27;20492;-44
2022/01/12 03:15:13;;;;;;;424.55;328.63;;;;;;;24.90;42.75;103335.00;5126510;27;20409;-45
2022/01/12 03:17:41;;;;;;;429.27;326.63;;;;;;;24.88;42.97;103334.91;5125927;27;20029;-44
2022/01/12 03:20:10;;;;;;;421.60;326.65;;;;;;;24.86;43.02;103337.50;5126128;27;20031;-45
2022/01/12 03:22:39;;;;;;;439.80;329.02;;;;;;;24.84;42.96;103348.72;5126054;27;20031;-45
2022/01/12 03:25:08;;;;;;;432.23;329.88;;;;;;;24.85;43.07;103345.28;5107817;27;20015;-45
2022/01/12 03:27:37;;;;;;;422.98;325.55;;;;;;;24.82;43.09;103350.41;5125513;27;20054;-44
2022/01/12 03:30:06;;;;;;;430.98;330.65;;;;;;;24.76;43.20;103350.97;5125729;27;20383;-44
2022/01/12 03:32:42;;;;;;;442.25;332.00;;;;;;;24.83;43.26;103346.91;5125106;27;20349;-44
2022/01/12 03:35:23;;;;;;;435.85;330.92;;;;;;;24.84;42.89;103343.47;5126167;27;20058;-44
2022/01/12 03:38:35;;;;;;;421.58;325.90;;;;;;;24.80;43.01;103342.44;5124959;27;20059;-44
2022/01/12 03:40:38;;;;;;;432.25;329.08;;;;;;;24.79;43.37;103338.00;5103429;27;20050;-44
2022/01/12 03:43:06;;;;;;;438.33;331.10;;;;;;;24.79;42.99;103342.38;5125601;27;20550;-44
2022/01/12 03:45:35;;;;;;;424.40;325.35;;;;;;;24.76;43.29;103342.22;5125502;27;20034;-43
2022/01/12 03:48:04;;;;;;;440.23;334.50;;;;;;;24.77;43.07;103349.28;5125216;27;20031;-44
2022/01/12 03:50:32;;;;;;;429.95;328.25;;;;;;;24.84;42.85;103349.63;5125243;27;20031;-44
2022/01/12 03:53:01;;;;;;;432.88;325.77;;;;;;;24.65;43.15;103325.94;5124870;27;20198;-44
2022/01/12 03:55:29;;;;;;;432.38;333.30;;;;;;;24.76;43.01;103356.22;5089484;27;20056;-43
2022/01/12 03:57:58;;;;;;;424.58;327.15;;;;;;;24.79;42.85;103366.88;5124327;27;20434;-44
2022/01/12 04:00:26;;;;;;;426.10;329.20;;;;;;;24.82;42.78;103374.03;5125034;27;20102;-44
2022/01/12 04:02:54;;;;;;;428.05;325.17;;;;;;;24.83;42.83;103368.84;5124223;27;20397;-44
2022/01/12 04:05:40;;;;;;;428.83;324.50;;;;;;;24.78;43.20;103365.09;5124516;27;20047;-44
2022/01/12 04:08:29;;;;;;;431.60;327.38;;;;;;;24.77;43.38;103365.03;5124385;27;20038;-44
2022/01/12 04:11:00;;;;;;;433.60;330.58;;;;;;;24.78;43.24;103380.84;5124313;27;20038;-45
2022/01/12 04:13:30;;;;;;;435.25;333.88;;;;;;;24.80;43.20;103373.94;5123352;27;20467;-46
2022/01/12 04:16:05;;;;;;;427.00;325.13;;;;;;;24.79;43.09;103387.00;5125243;27;20478;-45
2022/01/12 04:18:34;;;;;;;429.40;329.65;;;;;;;24.74;43.24;103386.75;5124532;27;20081;-46
2022/01/12 04:21:06;;;;;;;425.00;322.88;;;;;;;24.76;43.02;103381.59;5124914;27;20039;-45
2022/01/12 04:23:35;;;;;;;427.88;323.77;;;;;;;24.73;43.06;103380.63;5124705;27;20022;-45
2022/01/12 04:26:09;;;;;;;427.48;328.67;;;;;;;24.69;43.39;103383.00;5123879;27;20026;-45
2022/01/12 04:28:40;;;;;;;432.83;326.58;;;;;;;24.71;43.34;103384.00;5124446;27;20110;-47
2022/01/12 04:31:07;;;;;;;420.15;329.40;;;;;;;24.65;43.37;103395.09;5124077;27;20110;-45
2022/01/12 04:33:37;;;;;;;432.33;328.35;;;;;;;24.68;43.35;103396.94;5124744;27;20030;-45
2022/01/12 04:36:06;;;;;;;427.98;325.77;;;;;;;24.69;43.07;103404.00;5124753;27;20026;-45
2022/01/12 04:38:36;;;;;;;427.92;326.95;;;;;;;24.70;43.18;103403.22;5124791;27;20042;-46
2022/01/12 04:41:06;;;;;;;432.20;328.73;;;;;;;24.72;43.24;103402.44;5124812;27;20086;-45
2022/01/12 04:43:35;;;;;;;429.88;333.13;;;;;;;24.71;43.29;103400.66;5124105;27;20411;-45
2022/01/12 04:48:38;;;;;;;431.67;329.02;;;;;;;24.66;43.42;103414.34;5124346;27;20031;-46
2022/01/12 04:51:07;;;;;;;418.02;325.20;;;;;;;24.68;43.08;103416.22;5124542;27;20122;-44
2022/01/12 04:53:35;;;;;;;431.52;331.25;;;;;;;24.69;43.36;103415.38;5124231;27;20027;-46
2022/01/12 04:56:04;;;;;;;434.35;332.25;;;;;;;24.72;43.28;103417.31;5124375;27;20030;-45
2022/01/12 04:58:33;;;;;;;429.35;331.05;;;;;;;24.69;42.99;103415.38;5124406;27;20473;-44
2022/01/12 05:01:10;;;;;;;424.85;330.80;;;;;;;24.71;43.31;103423.38;5124297;27;20030;-45
2022/01/12 05:09:28;;;;;;;437.25;334.75;;;;;;;24.63;43.20;103420.34;5119265;27;20397;-45
2022/01/12 05:14:52;;;;;;;430.42;335.13;;;;;;;24.66;43.47;103414.34;5121163;27;20522;-44
2022/01/12 05:17:21;;;;;;;430.40;332.42;;;;;;;24.67;43.32;103414.41;5131082;27;20035;-44
2022/01/12 05:19:50;;;;;;;421.05;328.95;;;;;;;24.67;43.47;103408.28;5130990;27;20038;-44
2022/01/12 05:22:17;;;;;;;438.00;336.95;;;;;;;24.66;43.24;103406.47;5131066;27;20038;-44
2022/01/12 05:24:46;;;;;;;433.75;333.55;;;;;;;24.69;43.47;103409.25;5131003;27;20030;-45
2022/01/12 05:27:14;;;;;;;438.33;333.60;;;;;;;24.69;43.09;103411.88;5130932;27;20081;-44
2022/01/12 05:29:43;;;;;;;429.77;331.98;;;;;;;24.71;43.09;103399.75;5130958;27;20061;-44
2022/01/12 05:32:12;;;;;;;429.83;328.67;;;;;;;24.69;43.05;103402.25;5112426;27;20031;-45
2022/01/12 05:34:41;;;;;;;433.90;337.27;;;;;;;24.67;43.15;103409.16;5130894;27;20040;-45
2022/01/12 05:37:09;;;;;;;430.27;331.45;;;;;;;24.67;43.16;103411.78;5130164;27;20035;-46
2022/01/12 05:39:38;;;;;;;435.30;329.67;;;;;;;24.71;43.22;103407.63;5130836;27;20027;-44
2022/01/12 05:42:07;;;;;;;437.48;332.88;;;;;;;24.69;43.10;103399.63;5130748;27;20381;-45
2022/01/12 05:44:36;;;;;;;434.27;334.42;;;;;;;24.70;42.91;103401.47;5130996;27;20027;-45
2022/01/12 05:47:05;;;;;;;427.60;332.73;;;;;;;24.71;43.19;103405.91;5112588;27;20142;-45
2022/01/12 05:49:34;;;;;;;428.65;333.00;;;;;;;24.76;42.86;103407.84;5130613;27;20476;-45
2022/01/12 05:52:02;;;;;;;433.80;333.80;;;;;;;24.71;43.04;103410.25;5130452;27;20058;-45
2022/01/12 05:54:31;;;;;;;431.83;336.98;;;;;;;24.71;43.33;103405.91;5130745;27;20471;-44
2022/01/12 05:56:58;;;;;;;432.00;334.33;;;;;;;24.67;43.36;103393.41;5130468;27;20023;-45
2022/01/12 05:59:27;;;;;;;439.83;335.67;;;;;;;24.69;43.12;103402.25;5131100;27;20454;-44
2022/01/12 06:01:55;;;;;;;435.67;332.67;;;;;;;24.74;43.03;103399.88;5130322;27;20030;-45
2022/01/12 06:04:24;;;;;;;441.70;339.88;;;;;;;24.68;43.02;103397.84;5130323;27;20035;-44
2022/01/12 06:06:53;;;;;;;431.23;334.80;;;;;;;24.65;43.67;103402.97;5131186;27;20087;-45
2022/01/12 06:09:20;;;;;;;445.20;345.92;;;;;;;24.67;43.40;103406.53;5130307;27;20019;-45
2022/01/12 06:11:49;;;;;;;446.15;342.48;;;;;;;24.71;43.52;103420.75;5130592;27;20091;-46
2022/01/12 06:14:19;;;;;;;436.40;335.95;;;;;;;24.71;43.04;103416.41;5130694;27;20164;-44
2022/01/12 06:16:47;;;;;;;447.73;339.77;;;;;;;24.67;43.17;103429.28;5130579;27;20027;-44
2022/01/12 06:19:16;;;;;;;444.75;341.30;;;;;;;24.62;43.66;103422.88;5130363;27;20028;-43
2022/01/12 06:21:44;;;;;;;439.70;339.45;;;;;;;24.64;43.50;103422.16;5127530;27;20117;-44
2022/01/12 06:24:12;;;;;;;439.48;336.80;;;;;;;24.68;43.42;103423.19;5127253;27;20031;-44
2022/01/12 06:26:41;;;;;;;442.10;338.02;;;;;;;24.62;43.67;103417.63;5108211;27;20031;-44
2022/01/12 06:31:39;;;;;;;436.23;335.30;;;;;;;24.56;43.19;103431.34;5127399;27;20295;-46
2022/01/12 06:34:07;;;;;;;443.80;340.13;;;;;;;24.52;43.43;103426.78;5127010;27;20023;-44
2022/01/12 06:36:36;;;;;;;436.42;334.95;;;;;;;24.66;43.20;103432.72;5126786;27;20476;-45
2022/01/12 06:39:09;;;;;;;436.73;331.80;;;;;;;24.59;43.65;103431.53;5125950;27;20099;-44
2022/01/12 06:41:38;;;;;;;432.23;334.35;;;;;;;24.56;43.24;103427.03;5126163;27;20471;-44
2022/01/12 06:44:07;;;;;;;434.13;339.50;;;;;;;24.61;43.23;103426.31;5128362;27;20110;-44
2022/01/12 06:46:36;;;;;;;437.80;334.98;;;;;;;24.56;43.53;103426.09;5126386;27;20031;-44
2022/01/12 06:49:04;;;;;;;441.92;339.75;;;;;;;24.64;43.58;103429.13;5126160;27;20461;-44
2022/01/12 06:51:31;;;;;;;433.60;338.80;;;;;;;24.72;43.12;103438.31;5126713;27;20050;-44
2022/01/12 06:54:00;;;;;;;443.67;343.65;;;;;;;24.65;43.42;103441.41;5126355;27;20023;-44
2022/01/12 06:56:28;;;;;;;436.23;337.42;;;;;;;24.48;43.06;103409.09;5108194;27;20080;-45
2022/01/12 06:58:57;;;;;;;436.75;339.15;;;;;;;24.64;43.09;103445.78;5126191;27;20387;-45
2022/01/12 07:01:25;;;;;;;430.70;327.63;;;;;;;24.65;43.42;103444.94;5126283;27;20031;-45
2022/01/12 07:03:53;;;;;;;424.42;325.38;;;;;;;24.62;43.28;103441.25;5126353;27;20076;-45
2022/01/12 07:06:22;;;;;;;437.33;334.63;;;;;;;24.58;43.25;103442.84;5125526;27;20146;-45
2022/01/12 07:08:51;;;;;;;435.90;336.65;;;;;;;24.60;43.28;103451.69;5125938;27;20112;-44
2022/01/12 07:11:19;;;;;;;438.60;336.27;;;;;;;24.66;43.21;103462.47;5126310;27;20489;-46
2022/01/12 07:13:48;;;;;;;449.08;338.80;;;;;;;24.61;43.25;103455.19;5126207;27;20080;-45
2022/01/12 07:16:17;;;;;;;449.15;337.00;;;;;;;24.64;43.31;103463.22;5108118;27;20499;-45
2022/01/12 07:18:45;;;;;;;447.80;341.88;;;;;;;24.63;43.36;103449.22;5125405;27;20491;-44
2022/01/12 07:21:14;;;;;;;436.30;331.13;;;;;;;24.63;43.21;103454.47;5125910;27;20027;-45
2022/01/12 07:23:42;;;;;;;441.55;337.17;;;;;;;24.59;43.84;103455.13;5125712;27;20034;-44
2022/01/12 07:26:11;;;;;;;441.55;336.92;;;;;;;24.60;43.39;103461.28;5125783;27;20114;-44
2022/01/12 07:28:40;;;;;;;433.35;331.00;;;;;;;24.62;43.48;103470.13;5125650;27;20035;-45
2022/01/12 07:31:08;;;;;;;437.20;328.08;;;;;;;24.61;43.65;103474.50;5125923;27;20019;-44
2022/01/12 07:33:35;;;;;;;425.35;328.75;;;;;;;24.61;43.35;103469.25;5095653;27;20027;-44
2022/01/12 07:36:04;;;;;;;424.73;323.52;;;;;;;24.64;43.37;103481.59;5125513;27;20019;-44
2022/01/12 07:38:33;;;;;;;428.85;325.67;;;;;;;24.66;43.36;103483.47;5125336;27;20031;-44
2022/01/12 07:41:01;;;;;;;427.92;329.98;;;;;;;24.65;43.63;103494.81;5125876;27;20031;-45
2022/01/12 07:43:30;;;;;;;437.33;329.95;;;;;;;24.68;43.40;103488.81;5125151;27;20486;-44
2022/01/12 07:45:58;;;;;;;434.73;324.92;;;;;;;24.71;43.54;103494.25;5125262;27;20027;-44
2022/01/12 07:48:27;;;;;;;422.83;316.45;;;;;;;24.76;43.23;103502.34;5125237;27;20035;-44
2022/01/12 07:50:56;;;;;;;427.17;322.05;;;;;;;24.68;43.61;103512.44;5125078;27;20063;-44
2022/01/12 07:53:25;;;;;;;433.95;322.60;;;;;;;24.67;43.68;103508.91;5124576;27;20045;-44
2022/01/12 07:55:53;;;;;;;436.23;322.38;;;;;;;24.70;43.44;103516.97;5106834;27;20454;-44
2022/01/12 07:58:22;;;;;;;427.75;323.30;;;;;;;24.71;43.39;103512.63;5124726;27;20133;-44
2022/01/12 08:00:50;;;;;;;427.30;319.67;;;;;;;24.65;43.59;103526.31;5125350;27;20434;-45
2022/01/12 08:03:20;;;;;;;428.23;320.67;;;;;;;24.70;43.67;103534.44;5106675;27;20042;-44
2022/01/12 08:05:50;;;;;;;428.25;314.45;;;;;;;24.76;43.13;103541.72;5124909;27;20133;-45
2022/01/12 08:08:19;;;;;;;422.27;316.42;;;;;;;24.72;43.18;103543.31;5124920;27;20019;-44
2022/01/12 08:10:48;;;;;;;420.85;311.02;;;;;;;24.75;43.07;103539.94;5124823;27;20019;-45
2022/01/12 08:13:17;;;;;;;412.42;304.10;;;;;;;24.68;43.21;103538.69;5124531;27;20113;-44
2022/01/12 08:15:45;;;;;;;411.45;303.80;;;;;;;24.68;43.46;103538.69;5096330;27;20027;-44
2022/01/12 08:18:14;;;;;;;408.42;301.83;;;;;;;24.69;43.58;103549.25;5125024;27;20038;-45
2022/01/12 08:20:43;;;;;;;408.63;306.10;;;;;;;24.75;43.18;103550.44;5125295;27;20024;-44
2022/01/12 08:23:12;;;;;;;415.10;307.55;;;;;;;24.71;43.13;103546.75;5125080;27;20109;-44
2022/01/12 08:25:40;;;;;;;407.48;301.05;;;;;;;24.72;43.00;103557.31;5124713;27;20155;-44
2022/01/12 08:28:09;;;;;;;411.20;309.30;;;;;;;24.71;43.19;103557.25;5124423;27;20034;-44
2022/01/12 08:30:38;;;;;;;419.30;305.63;;;;;;;24.65;43.42;103559.53;5123825;27;20033;-44
2022/01/12 08:33:07;;;;;;;416.50;308.80;;;;;;;24.68;43.42;103568.44;5124200;27;20027;-44
2022/01/12 08:35:51;;;;;;;424.08;311.40;;;;;;;24.68;43.15;103573.69;5124552;27;20019;-44
2022/01/12 08:38:21;;;;;;;419.85;307.30;;;;;;;24.72;43.27;103575.69;5106027;27;20042;-45
2022/01/12 08:40:49;;;;;;;424.80;313.75;;;;;;;24.72;43.20;103580.06;5124021;27;20278;-44
2022/01/12 08:43:17;;;;;;;417.38;311.65;;;;;;;24.71;43.49;103586.13;5124559;27;20023;-44
2022/01/12 08:45:46;;;;;;;415.17;314.30;;;;;;;24.71;43.34;103587.00;5124081;27;20030;-44
2022/01/12 08:48:14;;;;;;;414.70;305.67;;;;;;;24.78;43.07;103585.59;5096073;27;20031;-43
2022/01/12 08:50:43;;;;;;;415.23;311.83;;;;;;;24.70;43.42;103589.56;5124107;27;20046;-44
2022/01/12 08:53:11;;;;;;;427.98;317.80;;;;;;;24.63;43.59;103592.66;5124104;27;20019;-43
2022/01/12 08:55:40;;;;;;;425.00;319.98;;;;;;;24.60;43.24;103603.91;5124107;27;20420;-44
2022/01/12 08:58:10;;;;;;;422.88;317.13;;;;;;;24.63;43.42;103598.81;5123850;27;20423;-44
2022/01/12 09:00:38;;;;;;;418.40;312.23;;;;;;;24.68;43.52;103614.81;5123853;27;20035;-44
2022/01/12 09:03:07;;;;;;;418.60;311.13;;;;;;;24.66;43.41;103614.72;5123669;27;20042;-44
2022/01/12 09:05:35;;;;;;;417.77;308.52;;;;;;;24.63;43.29;103619.81;5123245;27;20047;-44
2022/01/12 09:08:05;;;;;;;411.30;306.30;;;;;;;24.63;42.92;103625.06;5123095;28;20039;-44
2022/01/12 09:10:34;;;;;;;412.73;296.42;;;;;;;24.60;43.32;103627.53;5122506;28;20054;-44
2022/01/12 09:13:01;;;;;;;400.77;294.65;;;;;;;24.61;43.22;103621.47;5123682;28;20019;-44
2022/01/12 09:15:30;;;;;;;403.08;295.95;;;;;;;24.63;42.92;103630.31;5123888;28;20495;-44
2022/01/12 09:17:59;;;;;;;410.70;298.67;;;;;;;24.45;43.26;103598.75;5123282;28;20031;-44
2022/01/12 09:20:28;;;;;;;402.92;298.05;;;;;;;24.67;42.89;103628.75;5123928;28;20027;-44
2022/01/12 09:22:58;;;;;;;403.83;299.38;;;;;;;24.66;43.25;103626.94;5124094;28;20857;-44
2022/01/12 09:25:27;;;;;;;410.38;301.35;;;;;;;24.65;42.91;103625.13;5123534;28;20387;-44
2022/01/12 09:27:57;;;;;;;408.33;302.73;;;;;;;24.69;43.32;103627.13;5123650;28;21032;-45
2022/01/12 09:30:26;;;;;;;416.35;303.13;;;;;;;24.67;42.79;103626.13;5106142;28;20530;-44
2022/01/12 09:32:55;;;;;;;406.95;306.20;;;;;;;24.66;43.03;103630.44;5123573;28;20041;-47
2022/01/12 09:35:24;;;;;;;405.60;299.20;;;;;;;24.69;43.16;103640.22;5123792;28;20337;-44
2022/01/12 09:37:53;;;;;;;401.50;291.35;;;;;;;24.69;42.94;103638.50;5123733;28;20035;-45
2022/01/12 09:40:22;;;;;;;408.83;299.45;;;;;;;24.67;43.21;103645.38;5124035;28;20023;-45
2022/01/12 09:42:53;;;;;;;410.25;304.52;;;;;;;24.70;43.02;103642.97;5123645;28;20034;-44
2022/01/12 09:45:23;;;;;;;402.42;300.02;;;;;;;24.70;42.86;103648.22;5123917;28;20031;-44
2022/01/12 09:47:51;;;;;;;414.58;309.58;;;;;;;24.73;43.22;103644.88;5123554;28;20031;-44
2022/01/12 09:50:22;;;;;;;422.80;303.33;;;;;;;24.70;43.14;103650.84;5123619;28;20057;-44
2022/01/12 09:52:51;;;;;;;415.70;307.48;;;;;;;24.74;42.92;103651.88;5098348;28;20063;-43
2022/01/12 09:55:23;;;;;;;411.40;307.98;;;;;;;24.79;43.17;103654.78;5105893;28;20027;-44
2022/01/12 09:57:52;;;;;;;421.05;308.98;;;;;;;24.83;42.78;103651.47;5127243;27;20028;-43
2022/01/12 10:01:09;;;;;;;410.40;303.02;;;;;;;24.77;43.06;103653.78;5127770;27;20049;-44
2022/01/12 10:03:39;;;;;;;406.23;301.33;;;;;;;24.80;42.73;103654.84;5127391;27;20067;-44
2022/01/12 10:06:18;;;;;;;395.10;290.73;;;;;;;24.75;42.83;103661.56;5127079;27;20047;-44
2022/01/12 10:08:46;;;;;;;397.80;294.85;;;;;;;24.82;42.86;103661.09;5127422;27;20035;-44
2022/01/12 10:11:15;;;;;;;404.17;293.27;;;;;;;24.85;42.93;103665.56;5127557;27;20096;-44
2022/01/12 10:13:44;;;;;;;402.05;292.33;;;;;;;24.89;42.78;103664.94;5109036;27;20023;-45
2022/01/12 10:16:16;;;;;;;404.65;300.30;;;;;;;25.00;42.70;103661.13;5108627;27;20030;-45
2022/01/12 10:18:54;;;;;;;411.15;306.55;;;;;;;24.97;42.16;103634.72;5126820;27;20535;-44
2022/01/12 10:21:35;;;;;;;412.98;305.77;;;;;;;25.09;42.71;103671.19;5127339;27;20194;-44
2022/01/12 10:24:07;;;;;;;406.35;302.58;;;;;;;25.11;42.67;103671.28;5126672;27;20055;-45
2022/01/12 10:26:42;;;;;;;426.58;315.58;;;;;;;25.09;42.55;103671.19;5127301;27;20031;-45
2022/01/12 10:29:14;;;;;;;410.90;304.20;;;;;;;25.05;42.58;103669.25;5126575;27;20035;-45
2022/01/12 10:31:48;;;;;;;414.52;305.08;;;;;;;24.93;42.53;103643.25;5108486;27;20031;-44
2022/01/12 10:34:17;;;;;;;423.67;312.85;;;;;;;25.05;42.47;103668.34;5126869;27;20035;-55
2022/01/12 10:36:47;;;;;;;420.10;313.65;;;;;;;25.11;42.69;103673.91;5126965;27;20031;-45
2022/01/12 10:39:17;;;;;;;413.13;312.42;;;;;;;25.13;42.55;103673.16;5108610;27;20401;-45
2022/01/12 10:42:06;;;;;;;424.95;315.73;;;;;;;25.26;42.11;103672.06;5126629;27;20062;-44
2022/01/12 10:44:34;;;;;;;413.35;309.88;;;;;;;25.18;42.35;103668.13;5127047;27;20030;-45
2022/01/12 10:47:27;;;;;;;416.52;310.63;;;;;;;25.20;42.60;103678.75;5126472;27;20426;-44
2022/01/12 10:49:56;;;;;;;424.38;314.38;;;;;;;25.27;42.16;103673.88;5126633;27;20202;-45
2022/01/12 10:52:27;;;;;;;420.63;309.15;;;;;;;25.31;42.16;103681.09;5126693;27;20023;-44
2022/01/12 10:54:59;;;;;;;417.75;311.80;;;;;;;25.36;42.25;103688.28;5126519;27;20388;-45
2022/01/12 10:57:30;;;;;;;421.58;313.90;;;;;;;25.33;42.14;103686.41;5126332;27;20119;-44
2022/01/12 11:00:07;;;;;;;418.92;316.27;;;;;;;25.37;42.13;103682.19;5126015;27;20045;-44
2022/01/12 11:02:37;;;;;;;423.45;316.15;;;;;;;25.29;42.28;103674.84;5126213;27;20372;-44
2022/01/12 11:05:06;;;;;;;426.98;314.88;;;;;;;25.29;42.27;103682.75;5126571;27;20056;-45
2022/01/12 11:07:35;;;;;;;421.00;316.45;;;;;;;25.32;42.26;103671.47;5125703;27;20031;-44
2022/01/12 11:10:07;;;;;;;428.65;320.67;;;;;;;25.26;42.48;103668.53;5126422;27;20034;-44
2022/01/12 11:12:37;;;;;;;435.67;323.85;;;;;;;25.25;42.29;103671.97;5126658;27;20054;-45
2022/01/12 11:15:08;;;;;;;436.38;321.52;;;;;;;25.16;42.30;103662.81;5125762;27;20499;-45
2022/01/12 11:17:38;;;;;;;429.52;322.95;;;;;;;25.39;41.87;103668.34;5125652;27;20477;-45
2022/01/12 11:20:11;;;;;;;420.17;313.42;;;;;;;25.28;42.09;103667.78;5125560;27;20476;-45
2022/01/12 11:22:58;;;;;;;425.02;314.15;;;;;;;25.26;42.28;103665.88;5125656;27;20027;-44
2022/01/12 11:25:39;;;;;;;421.65;314.42;;;;;;;25.22;42.48;103659.59;5119490;27;20297;-44
2022/01/12 11:28:27;;;;;;;430.77;326.02;;;;;;;25.29;42.37;103653.84;5125663;27;20076;-45
2022/01/12 11:30:56;;;;;;;430.20;325.38;;;;;;;25.45;42.15;103658.13;5125072;27;20035;-44
2022/01/12 11:33:40;;;;;;;423.13;318.40;;;;;;;25.40;41.97;103656.97;5125634;27;20023;-45
2022/01/12 11:36:28;;;;;;;428.00;316.80;;;;;;;25.44;42.03;103664.22;5125158;27;20050;-45
2022/01/12 11:39:06;;;;;;;427.73;320.65;;;;;;;25.30;42.09;103658.25;5124806;27;20064;-45
2022/01/12 11:41:36;;;;;;;425.73;316.77;;;;;;;25.34;42.35;103654.06;5125218;27;20037;-45
2022/01/12 11:44:15;;;;;;;417.85;313.58;;;;;;;25.40;41.84;103650.81;5124572;27;20422;-44
2022/01/12 11:46:44;;;;;;;424.00;316.73;;;;;;;25.34;41.93;103652.31;5099635;27;20092;-44
2022/01/12 11:49:33;;;;;;;422.23;310.85;;;;;;;25.39;41.70;103659.53;5125274;27;20126;-45
2022/01/12 11:52:22;;;;;;;418.42;313.17;;;;;;;25.45;41.61;103659.88;5124807;27;20162;-46
2022/01/12 11:54:53;;;;;;;414.85;312.33;;;;;;;25.44;41.75;103656.34;5120537;27;20039;-45
2022/01/12 11:57:34;;;;;;;421.55;309.73;;;;;;;25.41;41.76;103652.63;5125440;27;20038;-44
2022/01/12 12:00:22;;;;;;;410.08;309.52;;;;;;;25.38;41.77;103652.47;5107185;27;20058;-44
2022/01/12 12:02:52;;;;;;;416.75;302.65;;;;;;;25.34;42.05;103640.91;5106568;27;20103;-45
2022/01/12 12:05:23;;;;;;;416.67;311.48;;;;;;;25.22;42.19;103622.81;5106262;27;20051;-46
2022/01/12 12:07:54;;;;;;;426.10;307.75;;;;;;;25.39;41.86;103639.44;5093114;27;20039;-45
2022/01/12 12:10:25;;;;;;;396.13;290.05;;;;;;;25.53;41.62;103648.00;5124706;27;20038;-44
2022/01/12 12:12:56;;;;;;;411.90;296.58;;;;;;;25.53;41.63;103641.84;5124539;27;20035;-44
2022/01/12 12:15:25;;;;;;;400.00;298.35;;;;;;;25.51;41.76;103641.75;5124576;27;20027;-44
2022/01/12 12:17:54;;;;;;;398.48;292.02;;;;;;;25.32;41.74;103606.66;5106829;27;20094;-46
2022/01/12 12:20:25;;;;;;;395.67;294.25;;;;;;;25.47;41.97;103635.47;5124191;27;20049;-44
2022/01/12 12:22:54;;;;;;;393.30;289.35;;;;;;;25.58;41.42;103641.25;5125016;27;20023;-45